createdAt,value
2023-04-16T00:01:27.439Z,100948.77
2023-04-16T00:04:00.866Z,100943.45
2023-04-16T00:06:34.516Z,100939.29
2023-04-16T00:09:08.172Z,100941.11
2023-04-16T00:11:41.932Z,100938.89
2023-04-16T00:14:15.214Z,100935.40
2023-04-16T00:16:48.462Z,100936.20
2023-04-16T00:19:21.734Z,100936.42
2023-04-16T00:21:55.345Z,100935.27
2023-04-16T00:24:28.321Z,100941.38
2023-04-16T00:27:01.889Z,100940.19
2023-04-16T00:29:34.957Z,100942.02
2023-04-16T00:32:08.270Z,100938.80
2023-04-16T00:34:41.539Z,100938.92
2023-04-16T00:37:14.665Z,100945.14
2023-04-16T00:39:47.821Z,100936.33
2023-04-16T00:42:21.588Z,100943.58
2023-04-16T00:44:54.616Z,100943.05
2023-04-16T00:47:28.397Z,100950.05
2023-04-16T00:50:01.720Z,100953.28
2023-04-16T00:52:35.521Z,100954.84
2023-04-16T00:55:11.497Z,100955.09
2023-04-16T00:57:45.086Z,100954.56
2023-04-16T01:00:18.839Z,100964.94
2023-04-16T01:02:52.239Z,100963.37
2023-04-16T01:05:25.326Z,100964.53
2023-04-16T01:08:04.582Z,100963.50
2023-04-16T01:10:39.227Z,100973.19
2023-04-16T01:13:12.696Z,100974.48
2023-04-16T01:15:45.661Z,100973.81
2023-04-16T01:18:21.372Z,100973.58
2023-04-16T01:20:54.276Z,100974.20
2023-04-16T01:23:27.770Z,100974.47
2023-04-16T01:26:00.688Z,100966.16
2023-04-16T01:28:34.040Z,100968.35
2023-04-16T01:31:07.320Z,100966.97
2023-04-16T01:33:45.703Z,100970.98
2023-04-16T01:36:18.966Z,100970.19
2023-04-16T01:38:52.880Z,100971.23
2023-04-16T01:41:26.172Z,100965.55
2023-04-16T01:43:59.342Z,100962.56
2023-04-16T01:46:34.676Z,100953.89
2023-04-16T01:49:08.002Z,100949.74
2023-04-16T01:51:42.334Z,100949.24
2023-04-16T01:54:15.706Z,100946.39
2023-04-16T01:56:48.859Z,100939.01
2023-04-16T01:59:22.417Z,100946.25
2023-04-16T02:01:55.851Z,100943.13
2023-04-16T02:04:29.081Z,100951.83
2023-04-16T02:07:02.234Z,100951.03
2023-04-16T02:09:38.125Z,100955.72
2023-04-16T02:12:12.262Z,100949.61
2023-04-16T02:14:46.725Z,100947.15
2023-04-16T02:17:20.732Z,100943.39
2023-04-16T02:19:55.892Z,100946.26
2023-04-16T02:22:28.889Z,100941.08
2023-04-16T02:25:02.380Z,100935.89
2023-04-16T02:27:36.984Z,100935.25
2023-04-16T02:30:13.194Z,100935.13
2023-04-16T02:32:46.151Z,100937.81
2023-04-16T02:35:19.216Z,100935.08
2023-04-16T02:37:52.510Z,100938.73
2023-04-16T02:40:25.367Z,100943.78
2023-04-16T02:42:59.210Z,100945.44
2023-04-16T02:45:32.682Z,100945.16
2023-04-16T02:48:07.623Z,100953.20
2023-04-16T02:50:40.728Z,100947.75
2023-04-16T02:53:14.058Z,100949.30
2023-04-16T02:55:55.536Z,100946.44
2023-04-16T02:58:29.210Z,100953.94
2023-04-16T03:01:02.459Z,100951.34
2023-04-16T03:03:36.072Z,100954.41
2023-04-16T03:06:08.939Z,100955.83
2023-04-16T03:08:42.246Z,100963.60
2023-04-16T03:11:15.278Z,100955.70
2023-04-16T03:13:48.534Z,100966.95
2023-04-16T03:16:21.814Z,100968.64
2023-04-16T03:18:54.913Z,100966.55
2023-04-16T03:21:28.234Z,100968.13
2023-04-16T03:24:01.493Z,100968.66
2023-04-16T03:26:34.658Z,100965.53
2023-04-16T03:29:08.298Z,100971.52
2023-04-16T03:31:41.898Z,100965.26
2023-04-16T03:34:15.236Z,100969.14
2023-04-16T03:36:48.199Z,100963.60
2023-04-16T03:39:21.323Z,100970.22
2023-04-16T03:41:54.395Z,100968.13
2023-04-16T03:44:27.450Z,100963.22
2023-04-16T03:47:00.588Z,100966.09
2023-04-16T03:49:34.132Z,100970.64
2023-04-16T03:52:07.363Z,100971.04
2023-04-16T03:54:40.719Z,100977.26
2023-04-16T03:57:15.398Z,100977.14
2023-04-16T03:59:48.810Z,100977.55
2023-04-16T04:02:22.694Z,100976.40
2023-04-16T04:04:57.809Z,100978.51
2023-04-16T04:07:31.437Z,100982.94
2023-04-16T04:10:04.360Z,100984.16
2023-04-16T04:12:39.027Z,100986.48
2023-04-16T04:15:13.502Z,100987.92
2023-04-16T04:17:48.441Z,100985.73
2023-04-16T04:20:22.070Z,100993.28
2023-04-16T04:22:56.241Z,100995.12
2023-04-16T04:25:30.864Z,100996.95
2023-04-16T04:28:04.023Z,100990.19
2023-04-16T04:30:37.844Z,100994.34
2023-04-16T04:33:11.493Z,100990.63
2023-04-16T04:35:44.836Z,100997.23
2023-04-16T04:38:20.076Z,101003.19
2023-04-16T04:40:56.679Z,100990.60
2023-04-16T04:43:31.468Z,101000.61
2023-04-16T04:46:05.452Z,100994.38
2023-04-16T04:48:38.530Z,100992.86
2023-04-16T04:51:12.463Z,101000.77
2023-04-16T04:53:46.513Z,100995.16
2023-04-16T04:56:20.091Z,100999.30
2023-04-16T04:58:54.036Z,101002.69
2023-04-16T05:01:27.181Z,100999.82
2023-04-16T05:04:00.034Z,100995.56
2023-04-16T05:06:33.358Z,101000.08
2023-04-16T05:09:06.885Z,101000.86
2023-04-16T05:11:42.918Z,100993.33
2023-04-16T05:14:16.195Z,101011.09
2023-04-16T05:16:49.037Z,100995.88
2023-04-16T05:19:22.128Z,100997.56
2023-04-16T05:21:55.843Z,100997.55
2023-04-16T05:24:29.260Z,100992.48
2023-04-16T05:27:02.227Z,101004.94
2023-04-16T05:29:35.676Z,101005.40
2023-04-16T05:32:08.547Z,101007.35
2023-04-16T05:34:41.508Z,100998.38
2023-04-16T05:37:14.617Z,101004.36
2023-04-16T05:39:48.585Z,101011.11
2023-04-16T05:42:21.661Z,101012.66
2023-04-16T05:44:55.198Z,101010.80
2023-04-16T05:47:28.657Z,101008.97
2023-04-16T05:50:01.571Z,101013.89
2023-04-16T05:52:34.727Z,101019.98
2023-04-16T05:55:08.320Z,101021.94
2023-04-16T05:57:41.239Z,101017.14
2023-04-16T06:00:15.260Z,101015.19
2023-04-16T06:02:48.581Z,101019.90
2023-04-16T06:05:21.938Z,101014.73
2023-04-16T06:07:56.266Z,101010.17
2023-04-16T06:10:28.700Z,101005.78
2023-04-16T06:13:01.373Z,101005.09
2023-04-16T06:15:35.698Z,101011.84
2023-04-16T06:18:08.810Z,101008.16
2023-04-16T06:20:42.395Z,101011.14
2023-04-16T06:23:16.263Z,101008.06
2023-04-16T06:25:49.112Z,101006.88
2023-04-16T06:28:22.687Z,101014.61
2023-04-16T06:30:55.706Z,101013.02
2023-04-16T06:33:28.824Z,101010.50
2023-04-16T06:36:01.653Z,101004.77
2023-04-16T06:38:35.293Z,101003.53
2023-04-16T06:41:09.027Z,101004.75
2023-04-16T06:43:42.275Z,101013.91
2023-04-16T06:46:15.059Z,101007.59
2023-04-16T06:48:47.923Z,101009.89
2023-04-16T06:51:20.993Z,101010.08
2023-04-16T06:53:54.057Z,101000.38
2023-04-16T06:56:26.951Z,101000.23
2023-04-16T06:59:01.151Z,101000.59
2023-04-16T07:01:34.419Z,100997.52
2023-04-16T07:04:07.611Z,100992.48
2023-04-16T07:06:41.541Z,100999.86
2023-04-16T07:09:14.939Z,101003.11
2023-04-16T07:11:48.562Z,101014.58
2023-04-16T07:14:21.307Z,101012.98
2023-04-16T07:16:54.662Z,101007.77
2023-04-16T07:19:29.392Z,101016.48
2023-04-16T07:22:02.680Z,101008.41
2023-04-16T07:24:36.249Z,101008.63
2023-04-16T07:27:09.098Z,101008.86
2023-04-16T07:29:42.305Z,101019.11
2023-04-16T07:32:15.970Z,101009.81
2023-04-16T07:34:49.147Z,101010.27
2023-04-16T07:37:22.083Z,101012.80
2023-04-16T07:39:57.372Z,101016.69
2023-04-16T07:42:30.483Z,101003.58
2023-04-16T07:45:04.051Z,101007.00
2023-04-16T07:47:37.203Z,101006.15
2023-04-16T07:50:10.966Z,101006.00
2023-04-16T07:52:45.737Z,101011.55
2023-04-16T07:55:18.530Z,101006.45
2023-04-16T07:57:51.529Z,100995.83
2023-04-16T08:00:24.412Z,100995.34
2023-04-16T08:02:57.555Z,100994.47
2023-04-16T08:05:30.781Z,100992.00
2023-04-16T08:08:03.913Z,100999.19
2023-04-16T08:10:37.450Z,101001.75
2023-04-16T08:13:10.984Z,101001.45
2023-04-16T08:15:44.435Z,101011.10
2023-04-16T08:18:17.700Z,100995.92
2023-04-16T08:20:50.666Z,100996.25
2023-04-16T08:23:23.899Z,100992.63
2023-04-16T08:25:57.171Z,100994.53
2023-04-16T08:28:30.115Z,100993.06
2023-04-16T08:31:03.117Z,100995.38
2023-04-16T08:33:36.471Z,100995.39
2023-04-16T08:36:09.459Z,100994.71
2023-04-16T08:38:42.205Z,100988.72
2023-04-16T08:41:16.041Z,100980.80
2023-04-16T08:43:50.692Z,100986.85
2023-04-16T08:46:27.094Z,100986.97
2023-04-16T08:49:01.820Z,100984.46
2023-04-16T08:51:36.774Z,100980.86
2023-04-16T08:54:15.081Z,100987.19
2023-04-16T08:56:47.914Z,100981.66
2023-04-16T08:59:21.355Z,100985.09
2023-04-16T09:01:58.080Z,100971.52
2023-04-16T09:04:31.452Z,100973.66
2023-04-16T09:07:06.224Z,100984.00
2023-04-16T09:09:40.705Z,100973.09
2023-04-16T09:12:12.683Z,100982.25
2023-04-16T09:14:47.154Z,100964.25
2023-04-16T09:17:21.348Z,100964.55
2023-04-16T09:19:55.254Z,100961.94
2023-04-16T09:22:28.292Z,100965.47
2023-04-16T09:25:01.483Z,100969.17
2023-04-16T09:27:34.885Z,100964.94
2023-04-16T09:30:24.760Z,100969.69
2023-04-16T09:33:23.498Z,100964.36
2023-04-16T09:35:56.451Z,100957.61
2023-04-16T09:38:31.149Z,100957.39
2023-04-16T09:41:10.889Z,100953.16
2023-04-16T09:43:46.042Z,100951.66
2023-04-16T09:46:18.982Z,100951.13
2023-04-16T09:48:52.298Z,100948.02
2023-04-16T09:51:27.072Z,100947.32
2023-04-16T09:53:59.963Z,100945.09
2023-04-16T09:56:33.611Z,100951.53
2023-04-16T09:59:06.579Z,100947.12
2023-04-16T10:01:40.031Z,100945.72
2023-04-16T10:04:12.870Z,100951.75
2023-04-16T10:06:47.395Z,100946.92
2023-04-16T10:09:20.778Z,100947.51
2023-04-16T10:11:53.763Z,100958.87
2023-04-16T10:14:26.807Z,100961.06
2023-04-16T10:17:01.224Z,100955.64
2023-04-16T10:19:35.638Z,100951.59
2023-04-16T10:22:08.849Z,100945.66
2023-04-16T10:24:43.306Z,100945.91
2023-04-16T10:27:17.510Z,100956.48
2023-04-16T10:29:51.394Z,100948.41
2023-04-16T10:32:26.828Z,100944.86
2023-04-16T10:34:59.907Z,100948.16
2023-04-16T10:37:33.865Z,100964.56
2023-04-16T10:40:25.775Z,100946.94
2023-04-16T10:43:01.837Z,100956.84
2023-04-16T10:45:40.238Z,100947.67
2023-04-16T10:48:15.123Z,100944.12
2023-04-16T10:50:59.067Z,100959.23
2023-04-16T10:53:32.043Z,100942.40
2023-04-16T10:56:13.236Z,100934.41
2023-04-16T10:58:46.190Z,100935.34
2023-04-16T11:01:20.119Z,100935.72
2023-04-16T11:03:53.507Z,100933.30
2023-04-16T11:06:28.534Z,100937.50
2023-04-16T11:09:01.476Z,100921.27
2023-04-16T11:11:39.844Z,100920.98
2023-04-16T11:14:13.449Z,100921.17
2023-04-16T11:16:46.860Z,100914.44
2023-04-16T11:19:20.023Z,100918.55
2023-04-16T11:21:53.567Z,100910.97
2023-04-16T11:24:29.933Z,100918.69
2023-04-16T11:27:03.403Z,100911.14
2023-04-16T11:29:36.985Z,100909.92
2023-04-16T11:32:10.203Z,100902.66
2023-04-16T11:34:47.833Z,100903.16
2023-04-16T11:37:38.460Z,100907.33
2023-04-16T11:40:12.239Z,100898.94
2023-04-16T11:42:46.456Z,100887.17
2023-04-16T11:45:19.792Z,100891.22
2023-04-16T11:47:56.741Z,100885.52
2023-04-16T11:50:30.620Z,100886.20
2023-04-16T11:53:07.802Z,100885.88
2023-04-16T11:55:46.962Z,100879.97
2023-04-16T11:58:22.922Z,100877.59
2023-04-16T12:00:56.523Z,100878.90
2023-04-16T12:03:45.039Z,100869.62
2023-04-16T12:06:18.105Z,100872.59
2023-04-16T12:08:52.266Z,100868.48
2023-04-16T12:11:42.372Z,100861.33
2023-04-16T12:14:16.194Z,100861.41
2023-04-16T12:16:49.470Z,100862.34
2023-04-16T12:19:22.724Z,100860.28
2023-04-16T12:21:55.604Z,100860.95
2023-04-16T12:24:28.543Z,100860.06
2023-04-16T12:27:03.446Z,100850.47
2023-04-16T12:29:38.759Z,100861.22
2023-04-16T12:32:25.162Z,100844.34
2023-04-16T12:34:58.138Z,100844.52
2023-04-16T12:37:31.102Z,100843.64
2023-04-16T12:40:05.518Z,100843.55
2023-04-16T12:42:38.997Z,100837.25
2023-04-16T12:45:12.019Z,100838.81
2023-04-16T12:47:45.087Z,100827.17
2023-04-16T12:50:18.183Z,100836.45
2023-04-16T12:52:51.429Z,100835.77
2023-04-16T12:55:24.594Z,100824.94
2023-04-16T12:57:57.520Z,100827.43
2023-04-16T13:00:30.516Z,100826.84
2023-04-16T13:03:03.539Z,100822.66
2023-04-16T13:05:36.748Z,100819.94
2023-04-16T13:08:10.102Z,100820.53
2023-04-16T13:10:43.823Z,100820.20
2023-04-16T13:13:18.404Z,100817.99
2023-04-16T13:15:51.730Z,100816.98
2023-04-16T13:18:27.595Z,100810.03
2023-04-16T13:21:01.501Z,100804.88
2023-04-16T13:23:35.854Z,100812.41
2023-04-16T13:26:08.881Z,100801.66
2023-04-16T13:28:42.085Z,100805.20
2023-04-16T13:31:16.193Z,100801.27
2023-04-16T13:33:49.674Z,100806.73
2023-04-16T13:36:22.651Z,100813.72
2023-04-16T13:38:56.026Z,100805.68
2023-04-16T13:41:29.232Z,100810.42
2023-04-16T13:44:02.151Z,100811.56
2023-04-16T13:46:35.485Z,100809.45
2023-04-16T13:49:08.857Z,100802.89
2023-04-16T13:51:45.981Z,100804.20
2023-04-16T13:54:18.888Z,100803.39
2023-04-16T13:56:52.505Z,100809.28
2023-04-16T13:59:25.450Z,100819.94
2023-04-16T14:01:58.364Z,100817.16
2023-04-16T14:04:31.759Z,100817.23
2023-04-16T14:07:04.857Z,100814.78
2023-04-16T14:09:37.954Z,100822.15
2023-04-16T14:12:10.843Z,100815.59
2023-04-16T14:14:44.180Z,100811.02
2023-04-16T14:17:16.942Z,100810.25
2023-04-16T14:19:50.176Z,100812.97
2023-04-16T14:22:23.550Z,100812.49
2023-04-16T14:24:56.586Z,100814.70
2023-04-16T14:27:30.080Z,100807.63
2023-04-16T14:30:03.381Z,100809.28
2023-04-16T14:32:37.469Z,100817.06
2023-04-16T14:35:10.875Z,100815.59
2023-04-16T14:37:44.459Z,100811.56
2023-04-16T14:40:18.271Z,100809.61
2023-04-16T14:42:51.585Z,100813.47
2023-04-16T14:45:26.730Z,100815.41
2023-04-16T14:48:00.249Z,100813.42
2023-04-16T14:50:33.334Z,100811.86
2023-04-16T14:53:07.166Z,100809.40
2023-04-16T14:55:40.304Z,100801.69
2023-04-16T14:58:13.347Z,100808.97
2023-04-16T15:00:46.453Z,100803.47
2023-04-16T15:03:19.805Z,100802.41
2023-04-16T15:05:55.650Z,100801.49
2023-04-16T15:08:29.887Z,100806.39
2023-04-16T15:11:02.977Z,100809.13
2023-04-16T15:13:36.909Z,100810.03
2023-04-16T15:16:09.965Z,100806.94
2023-04-16T15:18:43.088Z,100807.56
2023-04-16T15:21:16.189Z,100815.66
2023-04-16T15:23:49.630Z,100811.88
2023-04-16T15:26:23.303Z,100817.65
2023-04-16T15:28:57.208Z,100819.48
2023-04-16T15:31:30.578Z,100819.13
2023-04-16T15:34:04.078Z,100813.14
2023-04-16T15:36:37.161Z,100807.53
2023-04-16T15:39:10.503Z,100821.16
2023-04-16T15:41:57.527Z,100815.96
2023-04-16T15:44:18.675Z,100824.38
2023-04-16T15:46:51.827Z,100822.69
2023-04-16T15:49:25.025Z,100832.37
2023-04-16T15:51:58.141Z,100829.79
2023-04-16T15:54:32.305Z,100832.83
2023-04-16T15:57:05.509Z,100831.45
2023-04-16T15:59:38.852Z,100843.58
2023-04-16T16:02:11.691Z,100838.66
2023-04-16T16:04:46.471Z,100846.55
2023-04-16T16:07:20.854Z,100849.08
2023-04-16T16:09:54.132Z,100843.74
2023-04-16T16:12:27.572Z,100846.28
2023-04-16T16:15:02.238Z,100853.73
2023-04-16T16:17:36.380Z,100851.92
2023-04-16T16:20:13.111Z,100847.50
2023-04-16T16:22:47.622Z,100856.25
2023-04-16T16:25:21.645Z,100860.14
2023-04-16T16:27:54.674Z,100857.95
2023-04-16T16:30:27.688Z,100860.05
2023-04-16T16:33:01.216Z,100859.95
2023-04-16T16:35:34.996Z,100870.68
2023-04-16T16:38:07.933Z,100870.68
2023-04-16T16:40:41.412Z,100870.05
2023-04-16T16:43:14.765Z,100870.84
2023-04-16T16:45:47.730Z,100872.55
2023-04-16T16:48:21.459Z,100869.92
2023-04-16T16:50:54.358Z,100873.89
2023-04-16T16:53:27.835Z,100877.80
2023-04-16T16:56:02.356Z,100875.69
2023-04-16T16:58:35.929Z,100875.27
2023-04-16T17:01:09.146Z,100873.91
2023-04-16T17:03:42.539Z,100875.70
2023-04-16T17:06:15.804Z,100877.87
2023-04-16T17:08:49.642Z,100880.57
2023-04-16T17:11:22.529Z,100880.52
2023-04-16T17:13:55.964Z,100879.29
2023-04-16T17:16:28.874Z,100880.67
2023-04-16T17:19:01.886Z,100884.25
2023-04-16T17:21:34.980Z,100891.22
2023-04-16T17:24:08.177Z,100887.02
2023-04-16T17:26:41.369Z,100885.87
2023-04-16T17:29:14.327Z,100891.67
2023-04-16T17:31:47.455Z,100886.02
2023-04-16T17:34:22.202Z,100891.00
2023-04-16T17:36:55.197Z,100891.53
2023-04-16T17:39:28.781Z,100890.92
2023-04-16T17:42:03.379Z,100896.70
2023-04-16T17:44:36.428Z,100897.25
2023-04-16T17:47:09.623Z,100898.85
2023-04-16T17:49:42.505Z,100901.23
2023-04-16T17:52:15.568Z,100898.80
2023-04-16T17:54:49.481Z,100899.36
2023-04-16T17:57:22.505Z,100898.64
2023-04-16T17:59:56.127Z,100901.27
2023-04-16T18:02:29.458Z,100906.14
2023-04-16T18:05:02.496Z,100901.11
2023-04-16T18:07:36.700Z,100907.02
2023-04-16T18:10:11.319Z,100903.66
2023-04-16T18:12:44.391Z,100906.03
2023-04-16T18:15:18.114Z,100902.30
2023-04-16T18:17:51.353Z,100899.34
2023-04-16T18:20:24.420Z,100909.53
2023-04-16T18:22:57.897Z,100904.09
2023-04-16T18:25:34.932Z,100906.05
2023-04-16T18:28:06.717Z,100903.10
2023-04-16T18:30:40.600Z,100904.05
2023-04-16T18:35:47.191Z,100905.17
2023-04-16T18:38:19.924Z,100900.54
2023-04-16T18:40:52.774Z,100901.08
2023-04-16T18:43:25.762Z,100900.44
2023-04-16T18:45:58.961Z,100898.13
2023-04-16T18:48:31.567Z,100903.09
2023-04-16T18:51:04.401Z,100900.66
2023-04-16T18:53:39.447Z,100893.02
2023-04-16T18:56:11.871Z,100895.09
2023-04-16T18:58:44.630Z,100887.05
2023-04-16T19:01:18.223Z,100890.59
2023-04-16T19:03:51.076Z,100889.34
2023-04-16T19:06:23.959Z,100891.30
2023-04-16T19:08:57.318Z,100892.48
2023-04-16T19:11:30.814Z,100884.44
2023-04-16T19:14:05.709Z,100878.74
2023-04-16T19:16:41.241Z,100878.63
2023-04-16T19:19:13.513Z,100877.58
2023-04-16T19:21:46.333Z,100881.36
2023-04-16T19:24:20.274Z,100880.50
2023-04-16T19:26:53.472Z,100878.55
2023-04-16T19:29:28.138Z,100883.23
2023-04-16T19:32:01.277Z,100875.22
2023-04-16T19:34:34.537Z,100873.27
2023-04-16T19:37:07.415Z,100874.33
2023-04-16T19:39:40.385Z,100884.61
2023-04-16T19:42:13.518Z,100875.27
2023-04-16T19:44:46.420Z,100874.63
2023-04-16T19:47:20.448Z,100876.20
2023-04-16T19:49:53.316Z,100874.50
2023-04-16T19:52:26.258Z,100879.09
2023-04-16T19:54:58.865Z,100882.33
2023-04-16T19:57:31.671Z,100884.81
2023-04-16T20:00:06.507Z,100884.97
2023-04-16T20:02:39.081Z,100882.25
2023-04-16T20:05:12.119Z,100882.53
2023-04-16T20:07:44.991Z,100882.00
2023-04-16T20:10:17.776Z,100878.75
2023-04-16T20:12:51.323Z,100875.78
2023-04-16T20:15:24.942Z,100875.26
2023-04-16T20:17:58.053Z,100880.86
2023-04-16T20:20:30.842Z,100880.73
2023-04-16T20:23:03.650Z,100875.78
2023-04-16T20:25:36.309Z,100880.09
2023-04-16T20:28:09.587Z,100873.06
2023-04-16T20:30:42.818Z,100867.74
2023-04-16T20:33:15.666Z,100869.05
2023-04-16T20:35:50.782Z,100871.15
2023-04-16T20:38:24.119Z,100874.92
2023-04-16T20:41:01.437Z,100864.00
2023-04-16T20:43:36.862Z,100860.27
2023-04-16T20:46:11.194Z,100865.05
2023-04-16T20:48:44.314Z,100858.44
2023-04-16T20:51:17.584Z,100866.52
2023-04-16T20:53:52.127Z,100859.48
2023-04-16T20:56:25.037Z,100867.16
2023-04-16T20:58:59.615Z,100863.95
2023-04-16T21:01:31.511Z,100859.39
2023-04-16T21:04:05.203Z,100860.17
2023-04-16T21:06:38.820Z,100863.81
2023-04-16T21:09:12.368Z,100851.11
2023-04-16T21:11:45.338Z,100850.09
2023-04-16T21:14:18.235Z,100849.56
2023-04-16T21:16:51.049Z,100850.73
2023-04-16T21:19:23.927Z,100845.81
2023-04-16T21:21:56.768Z,100840.91
2023-04-16T21:24:30.030Z,100840.37
2023-04-16T21:27:03.630Z,100832.73
2023-04-16T21:29:36.959Z,100837.00
2023-04-16T21:32:09.976Z,100838.58
2023-04-16T21:34:43.222Z,100832.11
2023-04-16T21:37:16.276Z,100832.11
2023-04-16T21:39:49.038Z,100832.39
2023-04-16T21:42:21.667Z,100837.18
2023-04-16T21:44:54.751Z,100827.84
2023-04-16T21:47:27.510Z,100825.25
2023-04-16T21:50:00.472Z,100826.42
2023-04-16T21:52:33.628Z,100821.88
2023-04-16T21:55:08.638Z,100825.27
2023-04-16T21:57:41.576Z,100814.23
2023-04-16T22:00:15.815Z,100816.27
2023-04-16T22:02:47.982Z,100814.35
2023-04-16T22:05:21.337Z,100822.02
2023-04-16T22:07:54.874Z,100821.89
2023-04-16T22:10:27.816Z,100818.14
2023-04-16T22:13:01.906Z,100822.28
2023-04-16T22:15:35.177Z,100817.77
2023-04-16T22:18:09.939Z,100818.41
2023-04-16T22:20:42.717Z,100819.98
2023-04-16T22:23:16.061Z,100819.85
2023-04-16T22:25:48.848Z,100815.83
2023-04-16T22:28:21.608Z,100815.95
2023-04-16T22:30:54.471Z,100808.19
2023-04-16T22:33:31.974Z,100800.15
2023-04-16T22:36:05.131Z,100800.82
2023-04-16T22:38:38.996Z,100797.57
2023-04-16T22:41:11.901Z,100795.25
2023-04-16T22:43:44.762Z,100795.89
2023-04-16T22:46:19.275Z,100788.38
2023-04-16T22:48:52.224Z,100786.03
2023-04-16T22:51:27.815Z,100784.64
2023-04-16T22:54:00.800Z,100785.41
2023-04-16T22:56:34.272Z,100783.09
2023-04-16T22:59:10.273Z,100782.30
2023-04-16T23:01:43.462Z,100774.80
2023-04-16T23:04:17.789Z,100771.55
2023-04-16T23:06:51.679Z,100778.30
2023-04-16T23:09:24.571Z,100777.64
2023-04-16T23:11:58.150Z,100767.02
2023-04-16T23:14:31.857Z,100768.05
2023-04-16T23:17:05.087Z,100769.22
2023-04-16T23:19:38.382Z,100766.90
2023-04-16T23:22:11.386Z,100768.06
2023-04-16T23:24:44.556Z,100765.34
2023-04-16T23:27:17.615Z,100763.39
2023-04-16T23:29:50.925Z,100764.95
2023-04-16T23:32:23.794Z,100761.70
2023-04-16T23:34:56.811Z,100764.03
2023-04-16T23:37:30.125Z,100759.92
2023-04-16T23:40:02.831Z,100763.92
2023-04-16T23:42:36.371Z,100763.30
2023-04-16T23:45:11.859Z,100763.93
2023-04-16T23:47:45.076Z,100759.78
2023-04-16T23:50:17.893Z,100765.59
2023-04-16T23:52:50.711Z,100765.87
2023-04-16T23:55:23.643Z,100766.14
2023-04-16T23:57:56.389Z,100754.74
